Time;durP1;ratioP1;P1;durP2;ratioP2;P2;SDS_P1;SDS_P2;PMS_P1;PMS_P2;Temp;Humidity;BMP_temperature;BMP_pressure;BME280_temperature;BME280_humidity;BME280_pressure;Samples;Min_cycle;Max_cycle;Signal;HPM_P1;HPM_P2
2021/04/03 00:00:36;;;;;;;;;25.75;20.00;;;;;3.91;75.59;99249.50;3595125;39;9430;-60
2021/04/03 00:03:06;;;;;;;;;28.00;20.50;;;;;3.38;78.50;99244.56;3595531;39;8928;-59
2021/04/03 00:05:33;;;;;;;;;21.00;18.75;;;;;3.76;77.57;99244.81;3594248;40;8956;-59
2021/04/03 00:08:04;;;;;;;;;40.00;28.75;;;;;4.47;76.36;99243.53;3595337;39;8931;-60
2021/04/03 00:10:57;;;;;;;;;38.00;26.25;;;;;4.75;76.74;99237.00;3595198;39;9141;-59
2021/04/03 00:13:31;;;;;;;;;26.00;21.75;;;;;4.91;75.83;99243.34;3595324;39;8947;-59
2021/04/03 00:15:58;;;;;;;;;27.50;20.75;;;;;4.83;76.08;99233.06;3595284;39;8905;-59
2021/04/03 00:18:25;;;;;;;;;32.25;23.00;;;;;5.08;75.25;99229.25;3595350;40;9077;-59
2021/04/03 00:20:52;;;;;;;;;41.25;27.00;;;;;4.27;77.10;99220.50;3594876;39;8956;-60
2021/04/03 00:23:22;;;;;;;;;46.00;30.75;;;;;4.07;77.20;99218.69;3595179;39;8952;-59
2021/04/03 00:25:51;;;;;;;;;40.25;30.00;;;;;4.27;76.56;99222.31;3593942;39;8939;-60
2021/04/03 00:28:20;;;;;;;;;48.25;32.50;;;;;4.33;74.88;99216.72;3595111;39;9037;-59
2021/04/03 00:30:47;;;;;;;;;35.25;26.50;;;;;3.69;77.03;99223.81;3594962;39;8956;-59
2021/04/03 00:33:14;;;;;;;;;36.00;28.75;;;;;3.76;78.73;99223.56;3595064;40;8904;-60
2021/04/03 00:35:44;;;;;;;;;43.75;28.75;;;;;3.48;79.28;99224.69;3594649;40;8984;-59
2021/04/03 00:38:13;;;;;;;;;37.50;27.75;;;;;3.86;78.82;99222.25;3594189;39;8931;-59
2021/04/03 00:40:50;;;;;;;;;26.25;20.00;;;;;4.42;77.82;99224.25;3592707;40;8962;-59
2021/04/03 00:43:23;;;;;;;;;28.25;24.25;;;;;4.71;76.82;99230.09;3593218;40;8964;-59
2021/04/03 00:45:51;;;;;;;;;25.75;25.25;;;;;4.83;76.25;99232.19;3594396;39;8916;-59
2021/04/03 00:48:19;;;;;;;;;26.00;20.75;;;;;5.13;75.65;99237.03;3595127;39;8901;-59
2021/04/03 00:50:50;;;;;;;;;29.25;21.25;;;;;5.41;74.19;99232.16;3602205;39;8960;-59
2021/04/03 00:53:21;;;;;;;;;21.50;19.25;;;;;5.33;74.45;99223.66;3595213;40;8952;-59
2021/04/03 00:55:49;;;;;;;;;29.75;19.00;;;;;3.93;75.13;99223.75;3593721;40;8936;-59
2021/04/03 00:58:17;;;;;;;;;30.50;22.50;;;;;3.27;79.43;99216.66;3594904;39;9105;-59
2021/04/03 01:00:46;;;;;;;;;33.25;20.50;;;;;3.87;77.81;99229.28;3585361;40;8927;-59
2021/04/03 01:03:14;;;;;;;;;24.00;18.50;;;;;3.64;77.07;99247.03;3591937;40;8936;-59
2021/04/03 01:05:41;;;;;;;;;23.25;19.50;;;;;3.23;78.34;99246.88;3593836;40;8944;-60
2021/04/03 01:08:11;;;;;;;;;29.25;24.75;;;;;3.20;78.22;99236.38;3594615;40;8901;-59
2021/04/03 01:10:52;;;;;;;;;19.75;18.50;;;;;3.47;79.57;99228.25;3594715;39;8923;-59
2021/04/03 01:13:54;;;;;;;;;28.75;17.25;;;;;3.10;79.60;99224.41;3593815;40;8929;-59
2021/04/03 01:16:53;;;;;;;;;26.00;24.75;;;;;3.73;79.04;99217.44;3593605;40;9061;-59
2021/04/03 01:20:00;;;;;;;;;32.00;21.00;;;;;3.49;79.47;99215.81;3593303;40;9122;-59
2021/04/03 01:22:54;;;;;;;;;30.00;23.00;;;;;3.04;77.91;99204.28;3594617;40;8948;-58
2021/04/03 01:26:06;;;;;;;;;24.00;21.25;;;;;3.59;77.54;99198.59;3594191;39;8944;-59
2021/04/03 01:29:27;;;;;;;;;31.00;28.25;;;;;2.83;80.11;99195.38;3594638;40;8956;-59
2021/04/03 01:31:57;;;;;;;;;29.50;25.75;;;;;3.56;77.52;99193.41;3593808;40;8893;-59
2021/04/03 01:34:28;;;;;;;;;40.75;24.50;;;;;3.73;77.64;99188.25;3594607;40;9142;-60
2021/04/03 01:37:06;;;;;;;;;27.00;20.50;;;;;4.14;75.41;99198.91;3593073;40;9395;-59
2021/04/03 01:39:37;;;;;;;;;36.25;27.50;;;;;3.80;76.93;99202.13;3597495;39;8950;-59
2021/04/03 01:42:10;;;;;;;;;29.25;25.25;;;;;3.84;78.34;99202.88;3593493;40;8929;-59
2021/04/03 01:44:51;;;;;;;;;29.25;24.00;;;;;3.85;77.22;99181.56;3591632;39;8943;-59
2021/04/03 01:47:25;;;;;;;;;20.75;15.00;;;;;3.35;77.63;99181.88;3601920;39;9053;-59
2021/04/03 01:49:55;;;;;;;;;26.00;18.00;;;;;2.92;79.42;99188.84;3594761;39;8968;-59
2021/04/03 01:52:28;;;;;;;;;24.00;19.50;;;;;3.56;78.07;99196.06;3591879;40;8923;-59
2021/04/03 01:54:59;;;;;;;;;23.00;18.25;;;;;3.20;78.13;99193.09;3593860;40;8975;-59
2021/04/03 01:57:30;;;;;;;;;34.00;24.00;;;;;3.00;79.65;99191.19;3593028;40;8932;-59
2021/04/03 01:59:58;;;;;;;;;27.00;18.75;;;;;3.64;79.55;99177.16;3591770;40;8956;-59
2021/04/03 02:02:26;;;;;;;;;35.00;24.50;;;;;4.14;78.42;99182.13;3594364;39;8936;-59
2021/04/03 02:04:54;;;;;;;;;39.25;28.00;;;;;4.58;76.99;99188.13;3593843;39;8960;-57
2021/04/03 02:07:23;;;;;;;;;41.75;32.00;;;;;4.25;77.90;99192.28;3600354;39;8916;-58
2021/04/03 02:09:54;;;;;;;;;38.00;26.00;;;;;4.13;78.38;99199.84;3590705;40;8903;-58
2021/04/03 02:12:22;;;;;;;;;40.25;29.25;;;;;5.10;75.54;99215.91;3594338;39;8975;-59
2021/04/03 02:14:53;;;;;;;;;37.25;26.00;;;;;4.88;74.91;99206.25;3591870;40;8899;-59
2021/04/03 02:17:21;;;;;;;;;31.50;25.50;;;;;4.47;76.62;99194.84;3601862;39;8990;-59
2021/04/03 02:19:48;;;;;;;;;24.75;22.75;;;;;3.78;77.13;99198.69;3601572;39;9139;-59
2021/04/03 02:22:22;;;;;;;;;22.00;16.25;;;;;3.80;77.67;99204.78;3586620;40;8932;-59
2021/04/03 02:24:49;;;;;;;;;23.00;16.00;;;;;4.82;73.56;99203.91;3593873;39;9014;-59
2021/04/03 02:27:16;;;;;;;;;25.25;15.75;;;;;4.44;73.97;99206.47;3593729;40;8968;-61
2021/04/03 02:29:46;;;;;;;;;25.50;15.00;;;;;3.84;77.66;99205.50;3601291;39;8945;-59
2021/04/03 02:32:13;;;;;;;;;23.00;16.25;;;;;3.84;76.96;99201.06;3594228;39;8940;-59
2021/04/03 02:34:40;;;;;;;;;18.75;13.00;;;;;4.12;76.51;99190.13;3594171;39;8900;-59
2021/04/03 02:37:27;;;;;;;;;20.00;17.00;;;;;4.69;74.30;99184.13;3591758;40;8959;-59
2021/04/03 02:39:54;;;;;;;;;18.00;15.75;;;;;3.85;77.62;99173.59;3600339;39;8905;-59
2021/04/03 02:42:25;;;;;;;;;23.50;18.25;;;;;3.69;77.34;99173.38;3593791;39;8971;-59
2021/04/03 02:45:03;;;;;;;;;26.75;18.00;;;;;4.32;76.67;99169.81;3600826;39;8967;-60
2021/04/03 02:47:47;;;;;;;;;22.00;15.50;;;;;4.50;75.25;99162.78;3593203;40;8916;-59
2021/04/03 02:50:44;;;;;;;;;15.00;14.00;;;;;4.02;77.06;99156.06;3595831;39;9049;-59
2021/04/03 02:53:13;;;;;;;;;17.50;13.50;;;;;4.11;77.19;99161.84;3594223;39;8939;-63
2021/04/03 02:55:49;;;;;;;;;13.25;11.75;;;;;4.70;74.55;99154.78;3592805;40;8956;-59
2021/04/03 02:58:22;;;;;;;;;17.50;15.00;;;;;4.82;74.17;99169.31;3592846;40;9416;-59
2021/04/03 03:00:56;;;;;;;;;30.25;19.25;;;;;4.68;76.22;99161.09;3594710;39;8968;-59
2021/04/03 03:03:29;;;;;;;;;22.25;14.25;;;;;4.71;75.02;99160.94;3603298;39;8932;-59
2021/04/03 03:05:59;;;;;;;;;29.00;18.00;;;;;4.60;75.94;99164.97;3593989;40;8956;-59
2021/04/03 03:08:30;;;;;;;;;20.00;15.25;;;;;4.58;75.99;99165.97;3603052;39;8925;-59
2021/04/03 03:10:58;;;;;;;;;15.50;13.75;;;;;4.84;74.78;99154.13;3594813;40;8956;-59
2021/04/03 03:13:26;;;;;;;;;16.25;15.00;;;;;4.91;74.56;99158.22;3597993;39;8948;-59
2021/04/03 03:15:54;;;;;;;;;28.25;15.00;;;;;4.95;74.70;99159.81;3595662;39;8939;-59
2021/04/03 03:18:21;;;;;;;;;18.50;16.75;;;;;4.95;74.49;99170.47;3595565;39;8943;-59
2021/04/03 03:20:49;;;;;;;;;28.50;18.75;;;;;4.76;75.33;99180.22;3595423;40;9395;-59
2021/04/03 03:23:17;;;;;;;;;25.75;19.25;;;;;5.30;73.16;99183.03;3595322;40;8921;-59
2021/04/03 03:25:45;;;;;;;;;21.50;19.75;;;;;5.24;73.96;99197.50;3595074;39;8908;-60
2021/04/03 03:28:12;;;;;;;;;29.75;20.25;;;;;5.41;73.53;99202.88;3595754;40;8940;-60
2021/04/03 03:30:39;;;;;;;;;23.00;18.50;;;;;5.41;73.41;99210.00;3595193;39;8956;-59
2021/04/03 03:33:06;;;;;;;;;26.25;19.75;;;;;5.43;72.85;99206.31;3593186;40;8968;-59
2021/04/03 03:35:34;;;;;;;;;21.75;18.25;;;;;5.62;73.59;99208.94;3595352;40;8971;-59
2021/04/03 03:38:01;;;;;;;;;23.25;19.50;;;;;5.38;73.81;99208.34;3595328;40;8932;-59
2021/04/03 03:40:29;;;;;;;;;19.25;16.25;;;;;5.52;73.90;99215.66;3592685;40;8900;-59
2021/04/03 03:42:57;;;;;;;;;30.25;20.75;;;;;5.72;72.87;99215.53;3588168;40;8911;-59
2021/04/03 03:45:23;;;;;;;;;24.75;16.25;;;;;5.92;71.91;99211.00;3591650;40;8905;-60
2021/04/03 03:47:54;;;;;;;;;18.67;17.67;;;;;5.80;71.08;99207.19;3599945;39;8908;-59
2021/04/03 03:50:21;;;;;;;;;21.25;16.00;;;;;5.84;71.51;99206.06;3595598;39;8944;-60
2021/04/03 03:52:49;;;;;;;;;24.33;17.33;;;;;6.05;71.14;99211.28;3595313;39;8948;-60
2021/04/03 03:55:16;;;;;;;;;21.33;19.33;;;;;5.77;72.26;99201.16;3595331;39;8897;-59
2021/04/03 03:57:43;;;;;;;;;18.50;16.75;;;;;5.79;71.18;99210.75;3595180;40;8944;-59
2021/04/03 04:00:11;;;;;;;;;23.33;16.67;;;;;5.65;72.16;99207.94;3594058;40;8912;-59
2021/04/03 04:02:37;;;;;;;;;26.00;20.00;;;;;5.69;72.67;99193.53;3594984;40;8921;-59
2021/04/03 04:05:05;;;;;;;;;22.67;15.33;;;;;5.53;73.12;99185.44;3594889;39;8912;-58
2021/04/03 04:07:34;;;;;;;;;17.67;16.33;;;;;5.63;72.00;99183.16;3595297;40;9033;-59
2021/04/03 04:10:04;;;;;;;;;27.00;22.50;;;;;5.36;73.38;99183.59;3595420;40;8952;-60
2021/04/03 04:12:31;;;;;;;;;20.00;18.00;;;;;5.12;75.40;99176.78;3594753;39;8940;-59
2021/04/03 04:14:58;;;;;;;;;20.33;16.00;;;;;4.76;77.26;99178.41;3594748;39;9110;-59
2021/04/03 04:17:25;;;;;;;;;28.75;19.00;;;;;4.77;77.45;99181.97;3595275;39;9073;-59
2021/04/03 04:19:52;;;;;;;;;26.25;18.00;;;;;4.84;76.00;99181.63;3595170;40;8948;-59
2021/04/03 04:22:19;;;;;;;;;30.25;22.00;;;;;4.81;76.50;99178.22;3595257;40;8951;-59
2021/04/03 04:24:46;;;;;;;;;23.25;22.50;;;;;4.70;77.90;99164.56;3595125;40;9129;-59
2021/04/03 04:27:13;;;;;;;;;29.00;21.50;;;;;4.67;77.43;99160.25;3593532;40;8944;-59
2021/04/03 04:29:40;;;;;;;;;26.00;15.50;;;;;4.93;76.12;99166.16;3594959;40;8897;-59
2021/04/03 04:32:07;;;;;;;;;27.25;22.25;;;;;5.03;75.65;99178.09;3589363;39;9184;-59
2021/04/03 04:34:34;;;;;;;;;25.25;19.25;;;;;5.11;76.14;99181.25;3584773;40;8911;-59
2021/04/03 04:37:01;;;;;;;;;25.25;19.50;;;;;4.84;77.24;99183.38;3592706;40;8944;-59
2021/04/03 04:39:28;;;;;;;;;23.75;19.25;;;;;4.93;77.34;99182.97;3595109;40;8889;-59
2021/04/03 04:41:55;;;;;;;;;35.25;18.00;;;;;4.84;78.00;99199.34;3594888;39;8964;-59
2021/04/03 04:44:22;;;;;;;;;23.00;18.75;;;;;5.13;77.35;99200.66;3593136;40;8915;-59
2021/04/03 04:46:49;;;;;;;;;22.00;18.25;;;;;4.63;77.95;99214.47;3594135;40;8940;-59
2021/04/03 04:49:16;;;;;;;;;21.50;16.00;;;;;4.53;76.97;99207.84;3594768;39;8935;-59
2021/04/03 04:51:43;;;;;;;;;26.75;22.50;;;;;3.23;82.22;99200.91;3595327;40;8956;-58
2021/04/03 04:54:10;;;;;;;;;22.50;16.00;;;;;3.70;82.43;99199.00;3595128;40;8979;-60
2021/04/03 04:56:37;;;;;;;;;21.50;15.50;;;;;4.46;78.76;99204.59;3594019;39;9169;-59
2021/04/03 04:59:04;;;;;;;;;24.25;18.50;;;;;4.60;77.72;99220.78;3594645;39;8947;-59
2021/04/03 05:01:30;;;;;;;;;86.75;61.25;;;;;4.76;76.82;99236.91;3594572;39;8944;-59
2021/04/03 05:03:57;;;;;;;;;38.00;33.00;;;;;4.98;77.30;99241.28;3595048;39;8956;-60
2021/04/03 05:06:24;;;;;;;;;27.00;18.00;;;;;5.00;76.17;99240.28;3594022;39;9576;-59
2021/04/03 05:08:51;;;;;;;;;20.25;15.75;;;;;5.33;75.64;99223.66;3594783;40;8936;-59
2021/04/03 05:11:18;;;;;;;;;23.00;19.25;;;;;5.27;75.50;99221.31;3595055;40;9453;-59
2021/04/03 05:13:44;;;;;;;;;22.00;16.75;;;;;5.27;76.14;99213.31;3594430;40;8940;-59
2021/04/03 05:16:11;;;;;;;;;31.50;17.25;;;;;5.27;75.65;99218.66;3594548;39;8963;-59
2021/04/03 05:18:39;;;;;;;;;23.00;16.00;;;;;5.33;76.26;99221.00;3594574;39;8917;-59
2021/04/03 05:21:06;;;;;;;;;24.50;16.25;;;;;5.77;74.31;99233.13;3595010;39;8913;-59
2021/04/03 05:23:33;;;;;;;;;22.50;20.00;;;;;5.61;74.89;99236.53;3589935;39;9321;-59
2021/04/03 05:26:01;;;;;;;;;24.67;17.00;;;;;5.87;73.18;99243.25;3590435;40;8987;-59
2021/04/03 05:28:28;;;;;;;;;20.33;15.33;;;;;5.84;73.77;99243.38;3589959;40;8904;-59
2021/04/03 05:30:54;;;;;;;;;22.00;17.67;;;;;5.89;73.81;99249.34;3589328;40;8956;-60
2021/04/03 05:33:21;;;;;;;;;27.33;16.67;;;;;5.96;73.62;99247.28;3594527;39;8924;-60
2021/04/03 05:35:49;;;;;;;;;25.33;18.67;;;;;6.01;71.43;99253.25;3594538;39;8982;-59
2021/04/03 05:38:16;;;;;;;;;19.00;17.33;;;;;6.20;71.27;99257.66;3594799;39;8905;-58
2021/04/03 05:40:43;;;;;;;;;27.00;19.33;;;;;5.79;70.89;99250.72;3594578;40;9169;-59
2021/04/03 05:43:11;;;;;;;;;21.67;19.67;;;;;6.15;70.70;99260.53;3594556;39;9033;-59
2021/04/03 05:45:39;;;;;;;;;18.67;16.33;;;;;6.02;71.42;99260.28;3594071;40;8947;-61
2021/04/03 05:48:06;;;;;;;;;23.33;19.00;;;;;6.32;68.85;99265.88;3601907;39;8923;-58
2021/04/03 05:50:37;;;;;;;;;31.67;23.00;;;;;6.24;68.56;99259.19;3593542;40;8964;-58
2021/04/03 05:53:04;;;;;;;;;36.00;27.33;;;;;6.26;70.15;99260.84;3594480;40;8928;-60
2021/04/03 05:55:31;;;;;;;;;33.33;25.33;;;;;6.68;68.16;99267.56;3593943;40;9021;-59
2021/04/03 05:57:58;;;;;;;;;33.00;26.33;;;;;6.79;68.24;99262.56;3594350;40;9001;-59
2021/04/03 06:00:25;;;;;;;;;25.33;16.33;;;;;6.91;66.68;99262.84;3594391;40;9047;-59
2021/04/03 06:02:52;;;;;;;;;29.33;21.67;;;;;7.03;67.35;99254.19;3594813;40;8943;-60
2021/04/03 06:05:19;;;;;;;;;22.33;19.67;;;;;7.04;66.12;99261.25;3594370;40;8964;-60
2021/04/03 06:07:46;;;;;;;;;28.33;18.67;;;;;7.26;65.98;99272.47;3593151;40;8925;-59
2021/04/03 06:10:13;;;;;;;;;34.00;22.00;;;;;7.19;66.55;99270.22;3591785;40;8958;-59
2021/04/03 06:12:46;;;;;;;;;33.67;24.67;;;;;7.16;67.07;99271.25;3589744;40;9072;-59
2021/04/03 06:15:33;;;;;;;;;29.33;20.67;;;;;7.18;66.52;99277.34;3595099;39;9154;-60
2021/04/03 06:18:09;;;;;;;;;27.00;22.00;;;;;7.59;64.35;99270.69;3593924;39;8964;-59
2021/04/03 06:20:40;;;;;;;;;27.00;22.00;;;;;7.71;63.88;99267.31;3594573;39;9169;-60
2021/04/03 06:23:09;;;;;;;;;35.33;25.67;;;;;7.99;63.67;99265.75;3594012;40;9764;-59
2021/04/03 06:25:56;;;;;;;;;32.33;23.33;;;;;8.12;62.97;99256.94;3592956;40;9725;-59
2021/04/03 06:28:29;;;;;;;;;30.00;21.67;;;;;8.05;63.54;99266.25;3594576;40;8959;-59
2021/04/03 06:31:17;;;;;;;;;32.33;23.67;;;;;8.00;63.34;99272.81;3594251;40;8913;-60
2021/04/03 06:33:45;;;;;;;;;31.67;27.33;;;;;8.19;62.62;99267.25;3594201;39;9352;-58
2021/04/03 06:36:15;;;;;;;;;28.00;25.67;;;;;8.48;61.82;99262.91;3603027;39;9050;-60
2021/04/03 06:38:46;;;;;;;;;32.33;27.00;;;;;8.70;60.40;99274.03;3596089;39;8916;-59
2021/04/03 06:41:21;;;;;;;;;21.33;21.33;;;;;8.91;60.69;99265.66;3591035;39;9152;-59
2021/04/03 06:44:10;;;;;;;;;32.33;24.00;;;;;8.55;61.28;99278.47;3595909;40;8920;-59
2021/04/03 06:46:41;;;;;;;;;32.33;23.67;;;;;8.29;62.50;99268.44;3595451;39;9268;-60
2021/04/03 06:49:08;;;;;;;;;27.67;23.33;;;;;8.17;62.09;99263.84;3595590;39;9410;-59
2021/04/03 06:51:36;;;;;;;;;27.00;22.67;;;;;8.51;62.01;99274.28;3595965;40;8976;-60
2021/04/03 06:54:06;;;;;;;;;22.33;16.00;;;;;8.49;60.83;99288.72;3595767;39;9073;-59
2021/04/03 06:56:35;;;;;;;;;34.33;29.00;;;;;8.45;61.75;99289.81;3595407;39;8956;-59
2021/04/03 06:59:08;;;;;;;;;30.67;26.00;;;;;8.35;60.61;99295.69;3587447;40;8933;-58
2021/04/03 07:01:56;;;;;;;;;29.00;23.67;;;;;8.13;60.87;99301.41;3585608;40;9535;-58
2021/04/03 07:04:44;;;;;;;;;30.67;23.33;;;;;7.99;60.67;99306.72;3585418;40;8954;-60
2021/04/03 07:07:12;;;;;;;;;30.67;22.33;;;;;7.99;61.74;99312.06;3592167;40;8948;-59
2021/04/03 07:09:39;;;;;;;;;33.67;24.00;;;;;8.82;59.45;99315.28;3585227;40;9152;-59
2021/04/03 07:12:07;;;;;;;;;29.33;27.00;;;;;9.50;57.52;99322.66;3586184;40;9114;-59
2021/04/03 07:14:36;;;;;;;;;33.00;25.00;;;;;9.15;58.18;99332.91;3592960;40;9128;-59
2021/04/03 07:17:04;;;;;;;;;31.67;29.00;;;;;8.94;58.69;99335.94;3598153;39;8952;-59
2021/04/03 07:19:32;;;;;;;;;29.67;21.00;;;;;9.23;57.55;99325.25;3594490;40;8964;-59
2021/04/03 07:22:00;;;;;;;;;24.33;20.33;;;;;11.13;54.05;99339.63;3594383;40;8989;-58
2021/04/03 07:24:27;;;;;;;;;21.00;19.00;;;;;14.18;44.57;99339.09;3592725;40;9697;-59
2021/04/03 07:26:54;;;;;;;;;31.50;25.50;;;;;14.33;44.32;99351.34;3584655;40;12014;-59
2021/04/03 07:29:43;;;;;;;;;30.25;25.00;;;;;10.74;53.02;99351.28;3594272;40;12034;-59
2021/04/03 07:32:42;;;;;;;;;28.00;26.33;;;;;10.31;54.59;99352.31;3595231;39;12064;-59
2021/04/03 07:35:19;;;;;;;;;30.67;19.33;;;;;10.30;53.74;99358.66;3595051;40;12519;-59
2021/04/03 07:37:48;;;;;;;;;41.67;28.00;;;;;10.52;53.58;99346.50;3595205;40;8909;-60
2021/04/03 07:40:43;;;;;;;;;26.67;25.00;;;;;10.95;53.63;99347.16;3594504;40;9395;-59
2021/04/03 07:43:33;;;;;;;;;33.33;26.00;;;;;10.64;53.15;99347.50;3589381;40;11996;-58
2021/04/03 07:46:09;;;;;;;;;33.67;27.33;;;;;10.74;53.41;99344.09;3595352;40;8980;-59
2021/04/03 07:48:40;;;;;;;;;33.67;22.67;;;;;11.32;51.67;99352.66;3595574;39;9376;-59
2021/04/03 07:51:33;;;;;;;;;29.33;23.67;;;;;12.14;50.28;99346.81;3595208;40;8974;-59
2021/04/03 07:54:02;;;;;;;;;18.33;14.00;;;;;10.92;51.14;99354.53;3591777;40;12506;-60
2021/04/03 07:56:52;;;;;;;;;32.50;20.75;;;;;11.53;50.25;99349.41;3595138;39;12062;-60
2021/04/03 07:59:47;;;;;;;;;23.67;20.67;;;;;11.52;49.25;99358.44;3600235;39;12167;-60
2021/04/03 08:02:17;;;;;;;;;31.25;25.25;;;;;11.86;48.63;99355.09;3590261;40;12255;-60
2021/04/03 08:04:44;;;;;;;;;23.00;20.50;;;;;12.40;47.01;99359.25;3594132;39;12178;-61
2021/04/03 08:11:15;;;;;;;;;20.75;15.25;;;;;12.56;45.96;99358.06;3589051;40;11998;-59
2021/04/03 08:13:45;;;;;;;;;15.50;12.00;;;;;12.86;44.09;99355.78;3593681;40;12088;-60
2021/04/03 08:16:14;;;;;;;;;15.00;14.75;;;;;12.07;45.43;99355.38;3593823;39;12231;-59
2021/04/03 08:18:54;;;;;;;;;17.00;14.50;;;;;12.48;44.23;99347.88;3601178;39;12243;-59
2021/04/03 08:21:22;;;;;;;;;15.75;14.00;;;;;12.95;43.36;99349.69;3594100;40;12555;-60
2021/04/03 08:23:56;;;;;;;;;25.75;17.25;;;;;12.80;42.97;99350.84;3593890;39;12008;-59
2021/04/03 08:26:28;;;;;;;;;18.00;14.75;;;;;12.68;43.51;99346.38;3593006;40;12166;-58
2021/04/03 08:28:54;;;;;;;;;16.25;13.25;;;;;13.03;40.48;99340.97;3601236;39;12023;-59
2021/04/03 08:31:28;;;;;;;;;21.50;16.00;;;;;12.85;42.31;99334.31;3593639;39;11988;-60
2021/04/03 08:34:06;;;;;;;;;18.00;15.50;;;;;13.11;42.22;99332.31;3594183;39;12017;-60
2021/04/03 08:36:35;;;;;;;;;16.00;15.00;;;;;13.16;41.41;99343.59;3593765;39;12044;-59
2021/04/03 08:39:09;;;;;;;;;16.75;14.25;;;;;13.21;41.29;99344.09;3592571;40;12010;-59
2021/04/03 08:41:40;;;;;;;;;8.50;8.50;;;;;13.50;39.92;99343.69;3587612;39;12035;-60
2021/04/03 08:44:21;;;;;;;;;16.50;12.25;;;;;14.36;40.74;99340.28;3590565;40;11989;-59
2021/04/03 08:46:59;;;;;;;;;19.25;16.75;;;;;11.40;43.24;99342.22;3593334;39;12038;-61
2021/04/03 08:49:34;;;;;;;;;16.00;14.50;;;;;12.76;42.18;99351.19;3593892;39;12451;-60
2021/04/03 08:52:04;;;;;;;;;19.00;11.25;;;;;12.78;42.13;99350.09;3598514;39;12233;-59
2021/04/03 08:54:40;;;;;;;;;10.50;10.25;;;;;12.57;40.47;99359.81;3600816;39;12021;-60
2021/04/03 08:57:30;;;;;;;;;10.00;10.00;;;;;12.37;39.23;99358.59;3593023;40;12028;-60
2021/04/03 09:00:00;;;;;;;;;10.50;9.75;;;;;12.84;39.05;99357.72;3588142;40;12217;-60
2021/04/03 09:02:28;;;;;;;;;18.00;14.25;;;;;12.69;41.07;99353.47;3592551;40;12052;-60
2021/04/03 09:04:56;;;;;;;;;17.00;16.50;;;;;12.69;42.39;99356.19;3593647;40;12218;-60
2021/04/03 09:07:33;;;;;;;;;19.25;18.00;;;;;12.66;42.22;99356.41;3599508;39;12024;-59
2021/04/03 09:10:20;;;;;;;;;15.50;15.50;;;;;12.26;43.44;99351.31;3593482;39;12724;-60
2021/04/03 09:12:51;;;;;;;;;16.75;14.25;;;;;12.73;41.76;99354.97;3589586;40;12570;-60
2021/04/03 09:15:30;;;;;;;;;13.00;12.25;;;;;12.44;42.31;99360.72;3591913;39;12089;-60
2021/04/03 09:17:58;;;;;;;;;15.00;13.00;;;;;12.89;42.12;99352.84;3593699;39;12028;-60
2021/04/03 09:20:29;;;;;;;;;24.25;15.75;;;;;13.10;43.45;99353.03;3600857;39;12029;-60
2021/04/03 09:23:05;;;;;;;;;24.00;19.25;;;;;13.08;44.20;99343.34;3592914;39;12229;-63
2021/04/03 09:25:33;;;;;;;;;17.75;16.50;;;;;12.56;44.62;99358.06;3594016;40;12517;-60
2021/04/03 09:28:10;;;;;;;;;21.00;17.00;;;;;12.14;45.06;99346.81;3592609;39;12060;-60
2021/04/03 09:30:46;;;;;;;;;21.25;18.25;;;;;12.62;44.21;99342.34;3593299;39;12083;-60
2021/04/03 09:33:17;;;;;;;;;22.25;17.00;;;;;13.50;43.11;99354.47;3593421;39;12025;-60
2021/04/03 09:35:44;;;;;;;;;26.00;22.50;;;;;13.59;42.81;99360.00;3593381;40;12036;-60
2021/04/03 09:38:11;;;;;;;;;27.00;21.50;;;;;13.57;42.41;99337.69;3589384;40;12015;-62
2021/04/03 09:40:42;;;;;;;;;26.00;19.00;;;;;13.72;42.15;99343.69;3589408;40;12058;-59
2021/04/03 09:43:12;;;;;;;;;28.00;20.75;;;;;13.09;43.21;99350.47;3586690;40;12031;-59
2021/04/03 09:45:44;;;;;;;;;15.75;15.25;;;;;12.42;44.11;99351.91;3593084;39;12218;-60
2021/04/03 09:48:11;;;;;;;;;18.75;16.25;;;;;12.17;45.29;99349.31;3592447;39;12046;-61
2021/04/03 09:50:40;;;;;;;;;27.25;18.75;;;;;12.18;45.57;99357.25;3584849;40;12050;-60
2021/04/03 09:53:11;;;;;;;;;22.50;15.25;;;;;12.43;44.41;99356.31;3592912;40;12027;-60
2021/04/03 09:55:39;;;;;;;;;22.50;18.00;;;;;12.30;44.58;99358.22;3587112;40;12081;-59
2021/04/03 09:58:06;;;;;;;;;19.50;16.00;;;;;12.25;44.52;99360.38;3589304;40;12017;-60
2021/04/03 10:00:33;;;;;;;;;18.00;16.00;;;;;12.08;44.64;99354.41;3592853;39;12557;-60
2021/04/03 10:03:01;;;;;;;;;21.75;17.75;;;;;13.14;43.24;99345.56;3593372;40;12032;-60
2021/04/03 10:05:28;;;;;;;;;18.00;13.00;;;;;13.74;41.75;99349.81;3592958;40;12019;-59
2021/04/03 10:07:55;;;;;;;;;21.00;16.75;;;;;14.12;40.64;99340.47;3592273;39;12020;-61
2021/04/03 10:10:24;;;;;;;;;19.00;16.00;;;;;12.83;42.54;99342.53;3594082;39;11991;-61
2021/04/03 10:12:52;;;;;;;;;22.00;17.00;;;;;11.75;45.01;99351.44;3594704;40;12000;-61
2021/04/03 10:15:21;;;;;;;;;24.50;16.50;;;;;12.33;44.24;99352.59;3594913;40;12044;-60
2021/04/03 10:17:49;;;;;;;;;22.75;20.00;;;;;12.05;44.46;99337.63;3594528;40;12023;-60
2021/04/03 10:20:16;;;;;;;;;73.00;52.67;;;;;12.08;44.31;99340.97;3594838;39;12051;-60
2021/04/03 10:22:44;;;;;;;;;22.75;18.00;;;;;11.92;44.74;99353.78;3594800;39;8952;-60
2021/04/03 10:25:12;;;;;;;;;26.00;22.33;;;;;11.73;44.02;99348.00;3594769;39;12154;-61
2021/04/03 10:27:40;;;;;;;;;37.33;27.33;;;;;11.83;44.15;99349.91;3592077;39;12040;-61
2021/04/03 10:30:09;;;;;;;;;26.67;23.67;;;;;11.79;43.69;99345.69;3591598;40;8964;-61
2021/04/03 10:32:36;;;;;;;;;40.33;33.00;;;;;11.74;42.96;99338.94;3593950;40;12039;-60
2021/04/03 10:35:05;;;;;;;;;35.00;25.00;;;;;11.99;43.34;99338.94;3593166;39;8956;-61
2021/04/03 10:37:32;;;;;;;;;24.67;20.67;;;;;12.27;43.83;99344.97;3591640;40;12072;-60
2021/04/03 10:39:59;;;;;;;;;33.67;21.00;;;;;12.35;43.11;99347.06;3591597;39;12049;-61
2021/04/03 10:42:26;;;;;;;;;23.00;20.00;;;;;12.29;42.86;99345.69;3593621;40;12094;-60
2021/04/03 10:44:53;;;;;;;;;53.33;41.33;;;;;12.47;42.80;99341.63;3590162;39;12504;-60
2021/04/03 10:47:19;;;;;;;;;67.67;53.67;;;;;12.25;42.53;99333.47;3594327;40;8952;-60
2021/04/03 10:49:46;;;;;;;;;22.00;20.67;;;;;12.41;43.01;99339.41;3594605;39;9165;-60
2021/04/03 10:52:13;;;;;;;;;36.00;27.33;;;;;12.21;43.59;99332.81;3593967;39;12033;-62
2021/04/03 10:54:40;;;;;;;;;34.33;28.33;;;;;12.66;42.94;99341.09;3593060;40;12387;-61
2021/04/03 10:57:07;;;;;;;;;38.00;33.00;;;;;12.07;43.39;99341.91;3594312;39;12034;-61
2021/04/03 10:59:34;;;;;;;;;66.25;51.75;;;;;11.49;46.24;99334.47;3594996;40;8960;-63
2021/04/03 11:02:02;;;;;;;;;58.67;45.33;;;;;11.64;45.95;99334.25;3593884;39;8956;-61
2021/04/03 11:04:28;;;;;;;;;26.00;22.00;;;;;11.52;45.82;99348.53;3584347;40;9008;-61
2021/04/03 11:06:55;;;;;;;;;31.33;27.00;;;;;11.33;46.36;99338.25;3587234;40;8940;-60
2021/04/03 11:09:22;;;;;;;;;32.00;25.00;;;;;11.32;47.88;99341.91;3593078;39;9076;-60
2021/04/03 11:11:49;;;;;;;;;20.00;18.00;;;;;11.27;47.22;99348.53;3594674;39;8956;-59
2021/04/03 11:14:16;;;;;;;;;30.33;25.33;;;;;11.24;47.12;99351.44;3594196;39;9161;-61
2021/04/03 11:16:42;;;;;;;;;33.67;25.33;;;;;11.02;48.01;99352.94;3594192;40;8932;-60
2021/04/03 11:19:10;;;;;;;;;25.67;23.67;;;;;11.20;46.61;99342.75;3594510;40;8964;-60
2021/04/03 11:21:37;;;;;;;;;16.00;11.67;;;;;10.97;46.01;99338.97;3593874;40;8951;-60
2021/04/03 11:24:04;;;;;;;;;22.33;18.33;;;;;11.14;46.33;99351.25;3595404;39;8905;-60
2021/04/03 11:26:31;;;;;;;;;30.00;26.67;;;;;11.37;45.98;99342.44;3594563;39;8938;-61
2021/04/03 11:28:58;;;;;;;;;29.00;26.00;;;;;11.46;45.24;99346.31;3593549;40;8908;-61
2021/04/03 11:31:25;;;;;;;;;19.67;18.00;;;;;11.68;45.40;99356.38;3594393;40;8956;-61
2021/04/03 11:33:53;;;;;;;;;24.00;23.00;;;;;11.39;45.89;99345.00;3588774;40;12072;-60
2021/04/03 11:36:21;;;;;;;;;18.67;13.67;;;;;11.84;45.66;99348.94;3593297;39;12057;-61
2021/04/03 11:38:48;;;;;;;;;29.33;22.67;;;;;11.82;45.04;99339.25;3589100;40;11999;-62
2021/04/03 11:41:14;;;;;;;;;25.00;21.00;;;;;11.85;43.88;99336.34;3594091;40;12039;-61
2021/04/03 11:43:41;;;;;;;;;21.75;16.75;;;;;11.99;43.33;99338.06;3590919;39;12248;-61
2021/04/03 11:46:09;;;;;;;;;18.00;15.00;;;;;12.26;42.23;99340.56;3593441;40;11987;-61
2021/04/03 11:48:36;;;;;;;;;15.75;14.50;;;;;12.70;42.38;99322.91;3593512;39;12017;-61
2021/04/03 11:51:03;;;;;;;;;18.00;14.50;;;;;12.40;42.79;99326.06;3585023;32;13081;-61